Time;durP1;ratioP1;P1;durP2;ratioP2;P2;SDS_P1;SDS_P2;PMS_P1;PMS_P2;Temp;Humidity;BMP_temperature;BMP_pressure;BME280_temperature;BME280_humidity;BME280_pressure;Samples;Min_cycle;Max_cycle;Signal;HPM_P1;HPM_P2
2022/07/01 00:01:22;;;;;;;4.95;3.25;;;;;;;22.47;46.13;93869.09;4968827;28;20050;-76
2022/07/01 00:03:51;;;;;;;3.92;3.20;;;;;;;22.59;46.36;93893.06;4968320;28;20046;-78
2022/07/01 00:06:20;;;;;;;7.55;3.70;;;;;;;22.21;47.69;93877.53;4964647;28;20035;-77
2022/07/01 00:08:45;;;;;;;3.83;3.30;;;;;;;22.40;46.93;93890.75;4968306;28;20031;-77
2022/07/01 00:11:11;;;;;;;3.55;3.10;;;;;;;22.52;47.19;93892.31;4971405;28;20033;-77
2022/07/01 00:13:37;;;;;;;3.72;3.10;;;;;;;22.29;47.07;93858.22;4967187;28;20038;-77
2022/07/01 00:16:03;;;;;;;3.67;2.97;;;;;;;22.45;47.10;93881.44;4968578;28;20932;-77
2022/07/01 00:18:29;;;;;;;4.43;2.92;;;;;;;22.20;47.53;93846.19;4969142;28;20035;-78
2022/07/01 00:20:55;;;;;;;3.95;2.88;;;;;;;22.38;47.23;93868.69;4967601;28;20380;-77
2022/07/01 00:23:20;;;;;;;3.47;3.15;;;;;;;22.51;47.29;93904.31;4969804;28;20026;-77
2022/07/01 00:25:46;;;;;;;3.75;3.35;;;;;;;22.37;47.15;93885.31;4968610;28;20651;-77
2022/07/01 00:28:11;;;;;;;4.70;3.53;;;;;;;22.39;47.73;93915.53;4969451;28;20034;-78
2022/07/01 00:30:37;;;;;;;3.70;3.30;;;;;;;22.02;48.67;93899.56;4968466;28;20045;-78
2022/07/01 00:33:03;;;;;;;4.05;3.60;;;;;;;21.93;48.59;93889.09;4968709;28;20042;-77
2022/07/01 00:35:28;;;;;;;6.88;3.35;;;;;;;22.04;48.31;93903.44;4968777;28;20022;-77
2022/07/01 00:37:54;;;;;;;5.45;4.25;;;;;;;22.18;48.33;93910.81;4971033;28;20015;-77
2022/07/01 00:40:19;;;;;;;3.80;3.45;;;;;;;22.03;48.31;93899.19;4968894;28;20477;-77
2022/07/01 00:42:45;;;;;;;3.22;2.92;;;;;;;21.80;48.25;93885.94;4969106;28;20825;-77
2022/07/01 00:45:12;;;;;;;3.45;3.10;;;;;;;21.91;48.50;93899.50;4968768;28;20050;-77
2022/07/01 00:47:40;;;;;;;4.82;3.35;;;;;;;21.96;48.48;93909.97;4967518;28;20031;-77
2022/07/01 00:50:08;;;;;;;5.13;3.78;;;;;;;21.90;48.80;93903.41;4970260;28;20031;-76
2022/07/01 00:52:34;;;;;;;4.25;3.70;;;;;;;21.77;49.08;93877.81;4968779;28;20038;-78
2022/07/01 00:55:07;;;;;;;8.02;3.80;;;;;;;21.88;49.48;93905.72;4969887;28;20047;-77
2022/07/01 00:57:35;;;;;;;4.20;3.80;;;;;;;21.67;49.23;93873.13;4990376;28;20041;-77
2022/07/01 01:00:12;;;;;;;6.20;3.72;;;;;;;21.57;49.43;93865.75;4968643;28;20039;-77
2022/07/01 01:02:38;;;;;;;3.78;3.30;;;;;;;21.63;48.67;93904.84;4967877;28;20026;-77
2022/07/01 01:05:05;;;;;;;5.68;3.47;;;;;;;21.64;49.13;93911.81;4968917;28;20038;-77
2022/07/01 01:07:32;;;;;;;4.85;4.05;;;;;;;21.68;49.30;93915.28;4967728;28;20034;-78
2022/07/01 01:09:59;;;;;;;5.80;4.13;;;;;;;21.64;49.16;93915.28;4967864;28;20182;-77
2022/07/01 01:12:28;;;;;;;5.18;3.75;;;;;;;21.56;48.51;93919.09;4967928;28;20050;-77
2022/07/01 01:14:55;;;;;;;4.13;3.45;;;;;;;21.61;49.13;93921.44;4968394;28;20050;-77
2022/07/01 01:17:24;;;;;;;6.72;3.97;;;;;;;21.58;49.27;93905.19;4968928;28;20494;-77
2022/07/01 01:19:51;;;;;;;5.30;4.03;;;;;;;21.64;49.17;93906.38;4967280;28;20031;-77
2022/07/01 01:22:17;;;;;;;4.15;3.75;;;;;;;21.62;49.06;93895.16;4967360;28;20069;-77
2022/07/01 01:24:44;;;;;;;6.72;3.17;;;;;;;21.55;49.44;93900.56;4964727;28;20050;-77
2022/07/01 01:27:10;;;;;;;3.60;3.30;;;;;;;21.69;49.27;93906.03;4967529;28;20053;-77
2022/07/01 01:29:36;;;;;;;4.13;3.50;;;;;;;21.67;49.00;93892.09;4967860;28;20030;-78
2022/07/01 01:32:03;;;;;;;4.93;3.13;;;;;;;21.76;49.20;93908.75;4968690;28;20029;-77
2022/07/01 01:34:29;;;;;;;6.63;4.03;;;;;;;21.57;48.64;93906.34;4968914;28;20118;-77
2022/07/01 01:36:54;;;;;;;5.07;3.83;;;;;;;21.28;48.98;93887.25;4966861;28;20034;-77
2022/07/01 01:39:20;;;;;;;4.35;3.75;;;;;;;21.54;48.59;93909.78;4968278;28;20420;-77
2022/07/01 01:41:46;;;;;;;7.85;3.72;;;;;;;21.65;48.77;93906.03;4967444;28;20406;-78
2022/07/01 01:44:12;;;;;;;3.83;3.20;;;;;;;21.72;49.15;93905.25;4969755;28;20041;-76
2022/07/01 01:46:38;;;;;;;3.95;3.42;;;;;;;21.45;49.17;93873.06;4969831;28;20070;-76
2022/07/01 01:49:05;;;;;;;5.95;4.43;;;;;;;21.60;49.46;93897.50;4971594;28;20089;-76
2022/07/01 01:51:31;;;;;;;3.65;3.35;;;;;;;21.69;49.59;93930.38;4970938;28;20182;-77
2022/07/01 01:53:57;;;;;;;4.28;3.63;;;;;;;21.63;49.60;93923.78;4970432;28;20252;-78
2022/07/01 01:56:23;;;;;;;4.80;3.92;;;;;;;21.42;49.94;93913.59;4969409;28;20485;-77
2022/07/01 01:58:49;;;;;;;6.00;3.47;;;;;;;21.61;49.38;93936.94;4971489;28;20042;-77
2022/07/01 02:01:16;;;;;;;6.60;3.42;;;;;;;21.32;49.44;93882.63;4971388;28;20057;-78
2022/07/01 02:03:43;;;;;;;5.97;3.78;;;;;;;21.59;49.30;93936.53;4972855;28;20062;-77
2022/07/01 02:06:10;;;;;;;5.13;4.72;;;;;;;21.43;49.46;93905.09;4972709;28;20043;-78
2022/07/01 02:08:39;;;;;;;5.38;3.70;;;;;;;21.60;49.23;93925.31;4971574;28;20026;-77
2022/07/01 02:11:06;;;;;;;3.53;3.22;;;;;;;21.64;49.44;93922.63;4973772;28;20042;-77
2022/07/01 02:13:31;;;;;;;5.75;3.85;;;;;;;21.48;49.43;93900.47;4972615;28;20041;-76
2022/07/01 02:15:56;;;;;;;5.38;3.28;;;;;;;21.71;49.29;93925.34;4973178;28;20422;-77
2022/07/01 02:18:23;;;;;;;6.63;4.47;;;;;;;21.69;49.25;93920.34;4971492;28;20057;-77
2022/07/01 02:20:48;;;;;;;3.92;3.45;;;;;;;21.68;49.45;93929.59;4973856;28;20029;-78
2022/07/01 02:23:14;;;;;;;6.60;4.30;;;;;;;21.66;49.42;93936.53;4970657;28;20031;-77
2022/07/01 02:25:40;;;;;;;3.67;3.30;;;;;;;21.54;49.42;93921.41;4972912;28;20099;-77
2022/07/01 02:28:06;;;;;;;5.35;3.53;;;;;;;21.59;49.33;93928.41;4973373;28;20491;-77
2022/07/01 02:30:35;;;;;;;4.93;4.03;;;;;;;21.58;49.46;93937.66;4969975;28;20077;-76
2022/07/01 02:33:00;;;;;;;4.80;3.33;;;;;;;21.53;49.33;93941.50;4972120;28;20035;-77
2022/07/01 02:35:26;;;;;;;6.50;3.83;;;;;;;21.56;49.65;93956.22;4974542;28;20073;-77
2022/07/01 02:37:51;;;;;;;4.03;3.63;;;;;;;21.30;49.63;93912.00;4972619;28;20037;-77
2022/07/01 02:40:17;;;;;;;5.03;4.00;;;;;;;21.39;49.73;93936.00;4971688;28;20042;-76
2022/07/01 02:42:42;;;;;;;4.50;3.78;;;;;;;21.32;49.60;93935.94;4986307;28;20034;-76
2022/07/01 02:45:08;;;;;;;4.78;3.80;;;;;;;21.43;49.80;93947.63;4972218;28;20097;-77
2022/07/01 02:47:40;;;;;;;3.90;3.50;;;;;;;21.36;49.65;93937.53;4971426;28;20123;-77
2022/07/01 02:50:08;;;;;;;4.68;3.65;;;;;;;21.47;49.74;93953.81;4972352;28;20038;-76
2022/07/01 02:52:36;;;;;;;4.75;3.40;;;;;;;21.42;49.21;93941.44;4969175;28;20081;-76
2022/07/01 02:55:03;;;;;;;6.75;4.13;;;;;;;21.29;49.52;93932.09;4971684;28;20042;-77
2022/07/01 02:57:29;;;;;;;4.28;3.88;;;;;;;21.38;49.65;93951.47;4972167;28;20034;-77
2022/07/01 02:59:55;;;;;;;4.10;3.58;;;;;;;21.26;49.70;93943.66;4971337;28;20570;-77
2022/07/01 03:02:21;;;;;;;4.32;3.85;;;;;;;21.42;49.99;93957.66;4971051;28;20037;-77
2022/07/01 03:04:48;;;;;;;4.25;3.08;;;;;;;21.42;49.53;93959.59;4971985;28;20094;-76
2022/07/01 03:07:14;;;;;;;3.70;3.10;;;;;;;21.20;49.91;93944.41;4971327;28;20039;-78
2022/07/01 03:09:40;;;;;;;4.60;3.25;;;;;;;21.30;49.95;93955.28;4971453;28;20045;-76
2022/07/01 03:12:24;;;;;;;4.20;3.65;;;;;;;21.38;50.10;93977.72;4971415;28;20039;-77
2022/07/01 03:14:59;;;;;;;5.45;3.75;;;;;;;21.19;49.84;93942.84;4968728;28;20031;-78
2022/07/01 03:17:26;;;;;;;4.68;3.20;;;;;;;21.39;49.86;93985.47;4972503;28;20161;-78
2022/07/01 03:19:52;;;;;;;5.00;3.90;;;;;;;21.31;49.76;93973.06;4970712;28;20035;-77
2022/07/01 03:22:19;;;;;;;4.22;3.83;;;;;;;21.27;50.05;93972.25;4970921;28;20064;-78
2022/07/01 03:24:44;;;;;;;4.18;3.67;;;;;;;21.07;49.93;93935.03;4969329;28;20023;-76
2022/07/01 03:27:10;;;;;;;3.92;3.30;;;;;;;21.40;50.07;93980.84;4971085;28;20980;-77
2022/07/01 03:29:36;;;;;;;6.20;3.88;;;;;;;21.34;50.40;93969.59;4969954;28;20202;-77
2022/07/01 03:32:01;;;;;;;5.97;3.70;;;;;;;21.36;50.47;93975.41;4972331;28;20031;-77
2022/07/01 03:34:27;;;;;;;5.97;3.58;;;;;;;20.92;50.38;93907.13;4970048;28;20513;-77
2022/07/01 03:36:52;;;;;;;5.85;4.05;;;;;;;21.38;50.68;93967.69;4972380;28;20046;-77
2022/07/01 03:39:18;;;;;;;7.55;4.05;;;;;;;21.48;50.86;93978.94;4970287;28;20042;-77
2022/07/01 03:41:44;;;;;;;6.15;3.38;;;;;;;21.40;50.36;93965.41;4970781;28;20487;-77
2022/07/01 03:44:09;;;;;;;6.15;4.15;;;;;;;21.59;51.06;93993.34;4970169;28;20030;-78
2022/07/01 03:46:35;;;;;;;4.07;3.35;;;;;;;21.57;51.06;93972.06;4970710;28;20078;-77
2022/07/01 03:49:02;;;;;;;6.88;4.00;;;;;;;21.63;51.40;93986.81;4971187;28;20442;-76
2022/07/01 03:51:28;;;;;;;4.03;3.63;;;;;;;21.59;52.09;93982.53;4968677;28;20090;-76
2022/07/01 03:56:37;;;;;;;5.23;4.27;;;;;;;21.71;52.70;93976.78;4970593;28;20464;-75
2022/07/01 03:59:02;;;;;;;5.57;4.20;;;;;;;21.53;52.08;93932.59;4971335;28;20058;-75
2022/07/01 04:01:28;;;;;;;4.82;3.92;;;;;;;21.87;51.65;93982.66;4975806;28;20038;-76
2022/07/01 04:03:54;;;;;;;6.65;4.32;;;;;;;21.76;50.72;93973.72;4969823;28;20030;-75
2022/07/01 04:06:19;;;;;;;5.43;4.15;;;;;;;21.98;50.86;93983.50;4970426;28;20528;-76
2022/07/01 04:08:47;;;;;;;4.22;3.70;;;;;;;22.09;49.52;93989.72;4969787;28;20026;-77
2022/07/01 04:11:13;;;;;;;5.95;4.50;;;;;;;22.19;49.70;93986.25;4970534;28;20118;-75
2022/07/01 04:13:39;;;;;;;5.03;4.05;;;;;;;22.01;49.68;93955.63;4971209;28;20038;-75
2022/07/01 04:16:05;;;;;;;6.97;4.13;;;;;;;22.24;49.09;93979.75;4969957;28;20519;-76
2022/07/01 04:18:30;;;;;;;6.90;4.05;;;;;;;22.17;48.99;93991.28;4968999;28;20041;-76
2022/07/01 04:23:40;;;;;;;6.70;5.38;;;;;;;22.17;49.06;94002.13;4971455;28;20026;-76
2022/07/01 04:26:06;;;;;;;7.07;4.57;;;;;;;22.11;49.16;93981.97;4971774;28;20022;-75
2022/07/01 04:28:31;;;;;;;6.40;4.30;;;;;;;22.40;49.07;94006.47;4969664;28;20039;-75
2022/07/01 04:30:57;;;;;;;5.97;4.53;;;;;;;22.45;48.20;94006.09;4970326;28;20054;-75
2022/07/01 04:33:22;;;;;;;4.70;4.13;;;;;;;22.41;49.16;93989.06;4969181;28;20567;-76
2022/07/01 04:35:48;;;;;;;6.60;4.68;;;;;;;22.50;48.98;94008.44;4972121;28;20046;-76
2022/07/01 04:38:13;;;;;;;4.82;4.30;;;;;;;22.75;49.18;94006.56;4971426;28;20097;-75
2022/07/01 04:40:39;;;;;;;6.97;4.75;;;;;;;22.69;48.89;93978.28;4969839;28;20089;-75
2022/07/01 04:43:04;;;;;;;6.00;4.50;;;;;;;22.85;48.70;93986.81;4969575;28;20042;-76
2022/07/01 04:45:30;;;;;;;5.63;4.78;;;;;;;22.70;48.01;93990.66;4969543;28;20819;-76
2022/07/01 04:47:55;;;;;;;6.47;4.40;;;;;;;22.91;47.85;93998.88;4968489;28;20054;-76
2022/07/01 04:50:22;;;;;;;8.77;5.13;;;;;;;22.75;48.17;94003.84;4976863;28;20061;-75
2022/07/01 04:52:47;;;;;;;16.63;4.88;;;;;;;22.86;47.99;93999.25;4967846;28;20039;-76
2022/07/01 04:55:13;;;;;;;6.05;4.10;;;;;;;22.95;48.06;94005.06;4985363;28;20046;-75
2022/07/01 04:57:38;;;;;;;6.18;4.80;;;;;;;22.97;49.12;94004.69;4968269;28;20518;-75
2022/07/01 05:00:04;;;;;;;9.30;5.40;;;;;;;22.88;49.33;93958.94;4970411;28;20042;-76
2022/07/01 05:02:30;;;;;;;4.78;4.38;;;;;;;22.95;48.66;93964.38;4970970;28;20026;-75
2022/07/01 05:04:55;;;;;;;10.48;5.82;;;;;;;23.34;48.27;93990.72;4967708;28;20702;-77
2022/07/01 05:07:30;;;;;;;7.25;5.72;;;;;;;23.36;47.82;93977.53;4976358;28;20030;-76
2022/07/01 05:09:56;;;;;;;6.00;4.95;;;;;;;23.49;47.49;93981.41;4968873;28;20436;-76
2022/07/01 05:12:22;;;;;;;13.05;5.93;;;;;;;23.50;46.96;93977.53;4970172;28;20518;-78
2022/07/01 05:14:48;;;;;;;9.25;5.15;;;;;;;23.75;46.86;94005.41;4969723;28;20053;-76
2022/07/01 05:17:14;;;;;;;6.28;5.50;;;;;;;23.38;47.54;93980.63;4970341;28;20073;-76
2022/07/01 05:22:23;;;;;;;6.88;4.97;;;;;;;23.83;46.53;94006.94;4972889;28;20046;-78
2022/07/01 05:24:48;;;;;;;7.65;5.90;;;;;;;23.94;46.64;93999.53;4970577;28;20035;-77
2022/07/01 05:27:14;;;;;;;6.43;5.47;;;;;;;23.98;46.00;94004.94;4972251;28;20058;-77
2022/07/01 05:29:39;;;;;;;7.35;5.40;;;;;;;23.61;46.49;94000.00;4973898;28;20421;-77
2022/07/01 05:32:05;;;;;;;9.63;5.72;;;;;;;23.18;47.73;93966.69;4972897;28;20019;-75
2022/07/01 05:34:31;;;;;;;8.40;6.07;;;;;;;23.22;46.43;94010.13;4974586;28;20143;-76
2022/07/01 05:36:57;;;;;;;8.30;5.55;;;;;;;23.29;47.79;93999.25;4975262;28;20049;-76
2022/07/01 05:39:22;;;;;;;7.00;5.50;;;;;;;23.54;47.63;93989.16;4971465;28;20069;-76
2022/07/01 05:41:48;;;;;;;5.53;5.03;;;;;;;23.48;47.38;94012.41;4972992;28;20041;-77
2022/07/01 05:44:13;;;;;;;9.13;5.43;;;;;;;23.69;47.19;94001.53;4987001;28;20018;-75
2022/07/01 05:46:39;;;;;;;8.93;5.53;;;;;;;23.77;47.01;94005.78;5004572;28;20406;-75
2022/07/01 05:49:04;;;;;;;7.03;5.20;;;;;;;23.41;47.00;94001.56;4973056;28;20073;-75
2022/07/01 05:51:30;;;;;;;8.73;5.53;;;;;;;23.43;47.45;93996.50;5005018;28;20073;-76
2022/07/01 05:53:56;;;;;;;6.82;5.15;;;;;;;23.57;46.96;93996.50;4971851;28;20048;-76
2022/07/01 05:56:22;;;;;;;6.18;4.80;;;;;;;23.36;46.83;93956.59;4973162;28;20030;-76
2022/07/01 05:58:47;;;;;;;7.22;6.47;;;;;;;23.20;47.04;93979.88;4970323;28;20045;-76
2022/07/01 06:01:13;;;;;;;7.90;4.90;;;;;;;23.47;47.30;94011.63;4971801;28;20042;-76
2022/07/01 06:03:39;;;;;;;6.72;5.55;;;;;;;23.72;47.13;93989.09;4974611;28;20510;-76
2022/07/01 06:06:04;;;;;;;7.40;5.93;;;;;;;24.08;46.14;94012.28;4994044;28;20180;-75
2022/07/01 06:08:30;;;;;;;9.73;5.75;;;;;;;23.93;46.14;93999.91;4972543;28;20076;-75
2022/07/01 06:10:55;;;;;;;6.90;5.15;;;;;;;23.96;46.79;93999.91;4973601;28;22443;-76
2022/07/01 06:13:21;;;;;;;8.48;5.10;;;;;;;23.88;46.12;93976.66;4965967;28;20077;-77
2022/07/01 06:15:46;;;;;;;8.07;5.65;;;;;;;24.08;46.35;93978.91;4967062;28;20078;-77
2022/07/01 06:18:12;;;;;;;6.25;4.88;;;;;;;23.96;45.87;93999.13;4967579;28;20035;-77
2022/07/01 06:20:37;;;;;;;6.85;4.85;;;;;;;24.13;46.43;93982.03;4964841;28;20112;-76
2022/07/01 06:23:03;;;;;;;7.15;5.15;;;;;;;24.19;46.03;93995.97;4964332;28;20064;-76
2022/07/01 06:25:28;;;;;;;7.97;5.38;;;;;;;24.53;45.32;94018.72;4962546;28;20042;-77
2022/07/01 06:27:53;;;;;;;7.40;4.93;;;;;;;24.57;45.64;94005.88;4963305;28;20522;-77
2022/07/01 06:30:19;;;;;;;5.70;4.32;;;;;;;24.70;45.01;94004.22;4963490;28;20043;-77
2022/07/01 06:32:44;;;;;;;5.75;4.65;;;;;;;25.00;44.85;94008.34;4963794;28;20018;-76
2022/07/01 06:35:10;;;;;;;7.70;5.88;;;;;;;25.12;43.99;94007.88;4967750;28;20043;-77
2022/07/01 06:37:35;;;;;;;6.65;5.10;;;;;;;25.23;43.22;94000.38;4964574;28;22788;-76
2022/07/01 06:40:05;;;;;;;5.65;5.00;;;;;;;25.45;43.09;94009.16;4967282;28;20046;-76
2022/07/01 06:42:32;;;;;;;6.57;5.18;;;;;;;25.57;42.60;94016.81;4966739;28;20039;-77
2022/07/01 06:44:57;;;;;;;6.82;4.85;;;;;;;25.40;42.88;94024.00;4968051;28;20402;-76
2022/07/01 06:47:23;;;;;;;5.72;4.40;;;;;;;25.60;43.10;94016.81;4967774;28;20439;-76
2022/07/01 06:49:48;;;;;;;4.97;4.53;;;;;;;25.64;42.70;94020.25;4969772;28;20051;-77
2022/07/01 06:52:14;;;;;;;5.43;4.93;;;;;;;25.58;42.34;94012.94;4957612;28;20065;-76
2022/07/01 06:54:40;;;;;;;7.00;4.93;;;;;;;25.67;41.59;94005.06;4969724;28;20265;-77
2022/07/01 06:57:06;;;;;;;7.85;5.03;;;;;;;25.61;41.93;94017.59;4971379;28;20031;-77
2022/07/01 06:59:31;;;;;;;6.50;4.18;;;;;;;25.53;42.11;94007.91;4970531;28;20038;-76
2022/07/01 07:01:57;;;;;;;7.45;4.10;;;;;;;25.66;42.64;93998.81;4970064;28;20035;-76
2022/07/01 07:04:22;;;;;;;7.32;5.07;;;;;;;25.80;42.99;94011.56;4967651;28;20388;-77
2022/07/01 07:06:48;;;;;;;9.52;5.82;;;;;;;25.86;42.08;93990.84;4968886;28;20073;-76
2022/07/01 07:09:13;;;;;;;6.55;4.50;;;;;;;26.02;41.15;94009.38;4970320;28;20116;-76
2022/07/01 07:11:39;;;;;;;5.85;4.63;;;;;;;25.79;43.22;94011.94;4968665;28;20042;-76
2022/07/01 07:14:04;;;;;;;5.80;4.82;;;;;;;25.92;42.99;93991.19;4970481;28;20088;-76
2022/07/01 07:16:29;;;;;;;6.05;4.97;;;;;;;26.03;42.65;94005.47;4972935;28;20506;-77
2022/07/01 07:18:55;;;;;;;8.50;6.15;;;;;;;25.90;42.89;93990.84;4969936;28;20045;-76
2022/07/01 07:21:20;;;;;;;9.85;6.32;;;;;;;25.98;42.43;94008.66;4969982;28;20048;-76
2022/07/01 07:23:45;;;;;;;7.22;4.95;;;;;;;25.87;43.23;94014.19;4968763;28;20031;-76
2022/07/01 07:26:11;;;;;;;8.90;5.80;;;;;;;25.79;44.11;94017.41;4970795;28;20395;-76
2022/07/01 07:28:36;;;;;;;8.25;5.60;;;;;;;25.62;43.91;94021.81;4970861;28;20034;-76
2022/07/01 07:31:02;;;;;;;6.63;5.90;;;;;;;25.48;44.29;94025.47;4968454;28;20041;-77
2022/07/01 07:33:28;;;;;;;9.13;6.22;;;;;;;25.56;44.73;94018.03;4970256;28;20101;-77
2022/07/01 07:35:53;;;;;;;7.05;5.22;;;;;;;25.43;45.32;94006.84;4967719;28;20101;-78
2022/07/01 07:38:19;;;;;;;7.13;5.50;;;;;;;25.61;44.86;94015.63;4961713;28;20053;-76
2022/07/01 07:40:46;;;;;;;7.82;6.00;;;;;;;25.76;45.29;94012.75;4965599;28;20391;-76
2022/07/01 07:43:11;;;;;;;9.13;6.47;;;;;;;25.60;44.63;94008.63;4967764;28;20030;-76
2022/07/01 07:45:37;;;;;;;11.07;5.97;;;;;;;25.91;44.00;94009.50;4969131;28;20539;-77
2022/07/01 07:48:03;;;;;;;9.35;6.30;;;;;;;25.77;43.90;93997.94;4969904;28;20638;-77
2022/07/01 07:50:29;;;;;;;8.10;6.07;;;;;;;25.94;43.64;93997.03;4970175;28;20400;-77
2022/07/01 07:52:54;;;;;;;8.43;5.63;;;;;;;26.05;43.45;94016.75;4967520;28;20061;-76
2022/07/01 07:55:20;;;;;;;9.05;6.40;;;;;;;25.51;43.77;94015.72;4968590;28;20380;-77
2022/07/01 07:57:45;;;;;;;7.32;6.65;;;;;;;25.17;44.87;94010.16;4973439;28;20033;-76
2022/07/01 08:00:12;;;;;;;8.43;6.88;;;;;;;25.26;45.25;94024.84;4979128;28;20369;-76
2022/07/01 08:02:38;;;;;;;6.97;6.10;;;;;;;25.41;46.04;94019.31;4966728;28;20031;-76
2022/07/01 08:05:04;;;;;;;11.48;6.97;;;;;;;25.60;44.48;94003.19;4966886;28;20025;-76
2022/07/01 08:07:34;;;;;;;8.82;6.40;;;;;;;25.73;45.13;94002.66;4998212;28;20042;-75
2022/07/01 08:09:59;;;;;;;8.85;6.35;;;;;;;25.59;44.98;93998.91;4968601;28;20043;-77
2022/07/01 08:12:26;;;;;;;6.82;6.00;;;;;;;25.58;44.93;93997.38;4970985;28;20482;-77
2022/07/01 08:14:51;;;;;;;9.30;6.85;;;;;;;25.79;45.18;94006.50;4969822;28;20047;-77
2022/07/01 08:17:16;;;;;;;7.40;6.47;;;;;;;25.89;45.58;93983.84;4971226;28;20022;-77
2022/07/01 08:19:42;;;;;;;10.15;6.20;;;;;;;26.21;44.14;94003.31;4972777;28;20854;-77
2022/07/01 08:22:07;;;;;;;10.48;7.25;;;;;;;26.16;43.23;93995.59;4971940;28;20077;-76
2022/07/01 08:24:32;;;;;;;11.15;6.63;;;;;;;25.95;43.65;94006.75;4973146;28;20039;-77
2022/07/01 08:26:58;;;;;;;6.43;5.70;;;;;;;25.90;44.92;93975.28;4971973;28;20126;-76
2022/07/01 08:29:23;;;;;;;9.68;7.13;;;;;;;25.85;44.12;93974.91;4972602;28;20031;-77
2022/07/01 08:31:49;;;;;;;14.93;7.65;;;;;;;25.92;43.63;93964.72;4968120;28;20043;-76
2022/07/01 08:34:15;;;;;;;9.07;6.38;;;;;;;26.33;43.24;93997.34;4965762;28;20567;-77
2022/07/01 08:36:40;;;;;;;7.93;5.95;;;;;;;26.43;43.30;93990.97;4970952;28;20121;-77
2022/07/01 08:39:06;;;;;;;8.93;6.00;;;;;;;26.19;42.07;93986.59;4968150;28;20038;-77
2022/07/01 08:41:32;;;;;;;7.13;5.53;;;;;;;25.80;42.30;93967.97;4971250;28;20033;-76
2022/07/01 08:43:57;;;;;;;8.52;6.50;;;;;;;25.69;42.40;93967.31;4967327;28;20033;-76
2022/07/01 08:46:22;;;;;;;7.93;6.43;;;;;;;25.66;42.69;93971.59;5003864;28;20041;-75
2022/07/01 08:48:49;;;;;;;7.65;6.15;;;;;;;25.98;43.05;93984.13;4969368;28;21198;-75
2022/07/01 08:51:14;;;;;;;7.03;5.95;;;;;;;26.13;42.28;93999.13;4969525;28;20030;-75
2022/07/01 08:53:40;;;;;;;6.57;5.95;;;;;;;26.13;43.60;93993.69;4972427;28;20516;-75
2022/07/01 08:58:50;;;;;;;6.53;5.32;;;;;;;25.73;40.81;93897.22;4971048;28;20537;-77
2022/07/01 09:01:21;;;;;;;6.18;5.57;;;;;;;26.21;41.95;93984.22;4973439;28;20030;-77
2022/07/01 09:03:48;;;;;;;9.75;6.45;;;;;;;26.13;40.81;93994.47;4985909;28;20277;-78
2022/07/01 09:06:22;;;;;;;5.65;5.15;;;;;;;26.06;41.33;93999.97;4978769;28;20085;-77
2022/07/01 09:08:48;;;;;;;6.55;5.63;;;;;;;26.40;41.75;93999.19;4972769;28;20061;-78
2022/07/01 09:11:14;;;;;;;7.15;6.45;;;;;;;26.48;42.83;94003.41;4974378;28;20467;-77
2022/07/01 09:13:41;;;;;;;11.15;6.20;;;;;;;25.98;42.50;93894.97;4971599;28;20042;-78
2022/07/01 09:16:16;;;;;;;7.57;6.15;;;;;;;26.75;43.10;93987.81;4972140;28;21045;-77
2022/07/01 09:19:04;;;;;;;10.50;5.82;;;;;;;26.69;42.93;93975.06;4980501;28;20045;-78
2022/07/01 09:21:31;;;;;;;6.30;5.70;;;;;;;26.60;43.88;93982.97;4971618;28;20121;-78
2022/07/01 09:24:16;;;;;;;7.78;5.45;;;;;;;26.61;41.50;93971.66;4972690;28;20120;-78
2022/07/01 09:27:13;;;;;;;8.50;5.68;;;;;;;26.84;41.67;93990.78;4980652;28;20494;-78
2022/07/01 09:29:44;;;;;;;7.22;5.07;;;;;;;26.85;42.18;93983.38;4975029;28;20027;-78
2022/07/01 09:32:16;;;;;;;4.95;3.75;;;;;;;27.02;37.53;93987.84;4974411;28;20030;-77
2022/07/01 09:34:43;;;;;;;4.47;4.07;;;;;;;27.16;37.92;93993.09;4988084;28;20043;-78
2022/07/01 09:37:12;;;;;;;6.60;3.97;;;;;;;26.96;36.85;93989.47;4971140;28;20046;-77
2022/07/01 09:39:46;;;;;;;5.00;4.50;;;;;;;26.72;38.52;93969.56;4971792;28;20034;-77
2022/07/01 09:42:12;;;;;;;5.43;4.63;;;;;;;26.96;37.05;93984.00;4970567;28;20041;-77
2022/07/01 09:45:04;;;;;;;7.43;4.28;;;;;;;26.79;37.67;93974.16;4970436;28;20046;-77
2022/07/01 09:47:31;;;;;;;5.53;4.60;;;;;;;26.70;39.28;93971.91;4969099;28;20105;-76
2022/07/01 09:49:58;;;;;;;6.75;5.40;;;;;;;26.58;39.40;93974.44;4985250;28;20146;-77
2022/07/01 09:52:24;;;;;;;6.80;4.40;;;;;;;26.89;39.97;93973.19;4971383;28;20038;-78
2022/07/01 09:54:50;;;;;;;5.47;4.97;;;;;;;27.05;38.93;93976.09;4967146;28;20042;-77
2022/07/01 09:57:17;;;;;;;7.55;4.75;;;;;;;27.19;40.55;93964.94;4967969;28;20494;-77
2022/07/01 09:59:43;;;;;;;5.32;3.97;;;;;;;27.29;38.34;93960.47;4970169;28;20023;-77
2022/07/01 10:02:10;;;;;;;6.55;4.15;;;;;;;27.17;35.68;93910.00;4972470;28;20512;-78
2022/07/01 10:04:46;;;;;;;3.53;3.13;;;;;;;27.57;34.95;93964.72;4968093;28;20058;-78
2022/07/01 10:07:39;;;;;;;3.80;3.45;;;;;;;27.54;35.81;93958.09;4970255;28;20049;-78
2022/07/01 10:10:36;;;;;;;4.72;4.25;;;;;;;27.62;32.89;93962.25;4986197;28;20081;-76
2022/07/01 10:13:05;;;;;;;3.78;3.33;;;;;;;27.52;32.94;93940.59;4973090;28;20039;-76
2022/07/01 10:15:31;;;;;;;4.10;3.33;;;;;;;27.74;30.76;93964.38;4976818;28;20129;-75
2022/07/01 10:17:57;;;;;;;6.10;3.28;;;;;;;27.76;31.16;93953.06;4970876;28;20126;-76
2022/07/01 10:20:28;;;;;;;5.13;3.58;;;;;;;27.70;35.16;93938.31;4977375;28;20149;-75
2022/07/01 10:23:05;;;;;;;3.92;2.88;;;;;;;27.83;33.91;93953.66;4968860;28;20043;-76
2022/07/01 10:25:30;;;;;;;3.80;3.50;;;;;;;27.98;31.68;93953.38;4970895;28;20038;-75
2022/07/01 10:28:14;;;;;;;4.85;3.70;;;;;;;28.05;32.04;93954.03;4972682;28;20050;-77
2022/07/01 10:30:50;;;;;;;4.27;3.57;;;;;;;28.08;31.88;93941.47;4976846;28;20443;-76
2022/07/01 10:33:27;;;;;;;5.75;3.35;;;;;;;28.16;32.22;93949.13;4975917;28;20041;-76
2022/07/01 10:35:53;;;;;;;4.22;3.65;;;;;;;28.10;31.85;93923.50;4976093;28;20499;-76
2022/07/01 10:38:18;;;;;;;3.83;2.75;;;;;;;28.23;26.51;93943.53;4973275;28;20085;-75
2022/07/01 10:40:47;;;;;;;5.10;2.63;;;;;;;28.02;27.18;93916.59;4978174;28;20061;-76
2022/07/01 10:43:31;;;;;;;4.32;3.50;;;;;;;28.12;26.67;93915.63;4975058;28;20651;-76
2022/07/01 10:45:56;;;;;;;4.55;2.70;;;;;;;28.23;27.44;93931.81;4973911;28;20043;-75
2022/07/01 10:48:25;;;;;;;3.95;3.00;;;;;;;28.15;27.75;93920.28;4975152;28;20049;-76
2022/07/01 10:50:52;;;;;;;7.15;3.20;;;;;;;27.92;28.01;93925.00;4977553;28;20673;-75
2022/07/01 10:53:19;;;;;;;5.75;2.65;;;;;;;27.82;27.11;93896.69;4978008;28;20686;-75
2022/07/01 10:55:47;;;;;;;2.80;2.40;;;;;;;27.96;27.16;93899.13;4975151;28;20097;-76
2022/07/01 10:58:15;;;;;;;3.63;2.30;;;;;;;28.20;27.03;93922.50;4973465;28;20038;-76
2022/07/01 11:00:45;;;;;;;3.08;2.50;;;;;;;28.16;29.48;93924.53;4975082;28;20046;-76
2022/07/01 11:03:19;;;;;;;2.78;2.30;;;;;;;28.23;27.48;93918.91;4974730;28;20031;-77
2022/07/01 11:05:46;;;;;;;5.43;2.75;;;;;;;28.33;25.65;93925.34;4958804;28;20030;-76
2022/07/01 11:08:11;;;;;;;3.53;2.65;;;;;;;28.37;26.35;93915.09;4974319;28;20405;-76
2022/07/01 11:10:41;;;;;;;4.25;3.13;;;;;;;28.33;26.53;93914.41;4974587;28;20034;-76
2022/07/01 11:13:08;;;;;;;2.95;2.58;;;;;;;28.51;25.98;93920.25;4974077;28;20026;-76
2022/07/01 11:15:34;;;;;;;2.70;2.38;;;;;;;28.63;26.05;93916.09;4972829;28;20034;-77
2022/07/01 11:18:00;;;;;;;2.85;2.28;;;;;;;28.49;29.99;93908.22;4973998;28;20043;-77
2022/07/01 11:20:27;;;;;;;4.32;2.40;;;;;;;28.55;28.59;93920.94;4975404;28;20029;-75
2022/07/01 11:22:52;;;;;;;2.67;2.47;;;;;;;28.62;24.19;93909.84;4972766;28;20035;-76
2022/07/01 11:25:19;;;;;;;4.25;2.63;;;;;;;28.59;27.07;93916.19;4969643;28;20034;-76
2022/07/01 11:27:47;;;;;;;5.00;2.72;;;;;;;28.66;26.33;93909.78;4972252;28;20074;-76
2022/07/01 11:30:14;;;;;;;3.70;3.30;;;;;;;28.77;26.77;93917.75;4976160;28;20038;-77
2022/07/01 11:32:44;;;;;;;3.03;2.55;;;;;;;28.69;25.33;93892.53;4972832;28;20027;-75
2022/07/01 11:40:51;;;;;;;10.10;3.60;;;;;;;28.89;27.49;93900.66;4968138;28;20476;-76
2022/07/01 11:43:22;;;;;;;3.83;3.40;;;;;;;28.68;31.71;93907.41;4959068;28;20419;-76
2022/07/01 11:45:48;;;;;;;3.45;3.08;;;;;;;28.64;31.90;93899.28;4971016;28;20477;-77
2022/07/01 11:48:30;;;;;;;3.53;2.72;;;;;;;28.83;29.12;93897.66;4972378;28;20047;-75
2022/07/01 11:50:56;;;;;;;3.53;3.22;;;;;;;28.83;27.91;93894.94;4972577;28;20186;-76